Time;durP1;ratioP1;P1;durP2;ratioP2;P2;SDS_P1;SDS_P2;PMS_P1;PMS_P2;Temp;Humidity;BMP_temperature;BMP_pressure;BME280_temperature;BME280_humidity;BME280_pressure;Samples;Min_cycle;Max_cycle;Signal;HPM_P1;HPM_P2
2023/01/10 00:02:16;;;;;;;11.07;4.50;;;;;;;-142.25;100.00;58004.16;5032457;28;20056;-67
2023/01/10 00:04:42;;;;;;;4.80;4.30;;;;;;;-142.25;100.00;58004.16;5034571;28;20095;-66
2023/01/10 00:07:07;;;;;;;7.73;5.13;;;;;;;-142.25;100.00;58004.16;5036211;28;20029;-68
2023/01/10 00:09:33;;;;;;;7.53;4.30;;;;;;;-142.25;100.00;58004.16;5038495;28;20053;-67
2023/01/10 00:14:43;;;;;;;5.07;3.70;;;;;;;-142.25;100.00;58004.16;5036192;28;20048;-68
2023/01/10 00:17:08;;;;;;;5.10;4.03;;;;;;;-142.25;100.00;58004.16;5037705;28;20052;-67
2023/01/10 00:19:34;;;;;;;4.67;4.07;;;;;;;-142.25;100.00;58004.16;5040277;28;20111;-67
2023/01/10 00:22:04;;;;;;;6.93;4.00;;;;;;;-142.25;100.00;58004.16;5036819;28;20142;-67
2023/01/10 00:24:30;;;;;;;4.67;3.90;;;;;;;-142.25;100.00;58004.16;5038378;28;20045;-67
2023/01/10 00:26:56;;;;;;;5.63;3.80;;;;;;;-142.25;100.00;58004.16;5039479;28;20046;-67
2023/01/10 00:29:26;;;;;;;7.47;4.17;;;;;;;-142.25;100.00;58004.16;5034756;28;20049;-67
2023/01/10 00:31:52;;;;;;;3.80;3.43;;;;;;;-142.25;100.00;58004.16;5034503;28;20037;-67
2023/01/10 00:34:18;;;;;;;7.47;3.90;;;;;;;-142.25;100.00;58004.16;5033563;28;20099;-66
2023/01/10 00:36:46;;;;;;;4.13;3.73;;;;;;;-142.25;100.00;58004.16;5038264;28;20041;-66
2023/01/10 00:39:13;;;;;;;6.13;4.43;;;;;;;-142.25;100.00;58004.16;5036742;28;20456;-67
2023/01/10 00:44:25;;;;;;;6.68;4.47;;;;;;;-142.25;100.00;58004.16;5037222;28;20042;-67
2023/01/10 00:46:52;;;;;;;7.80;4.67;;;;;;;-142.25;100.00;58004.16;5037047;28;20117;-67
2023/01/10 00:49:18;;;;;;;5.60;4.03;;;;;;;-142.25;100.00;58004.16;5036277;28;20041;-65
2023/01/10 00:51:44;;;;;;;5.70;4.17;;;;;;;-142.25;100.00;58004.16;5038073;28;20132;-69
2023/01/10 00:54:12;;;;;;;7.60;4.90;;;;;;;-142.25;100.00;58004.16;5038121;28;20088;-67
2023/01/10 00:56:38;;;;;;;5.37;4.17;;;;;;;-142.25;100.00;58004.16;5032750;28;20044;-66
2023/01/10 00:59:04;;;;;;;5.03;3.70;;;;;;;-142.25;100.00;58004.16;5032725;28;20408;-66
2023/01/10 01:01:30;;;;;;;4.37;3.93;;;;;;;-142.25;100.00;58004.16;5037210;28;20491;-68
2023/01/10 01:03:58;;;;;;;4.27;3.87;;;;;;;-142.25;100.00;58004.16;5036585;28;20487;-67
2023/01/10 01:06:24;;;;;;;6.87;3.47;;;;;;;-142.25;100.00;58004.16;5035732;28;20132;-67
2023/01/10 01:08:50;;;;;;;5.80;3.70;;;;;;;-142.25;100.00;58004.16;5033941;28;20507;-68
2023/01/10 01:11:16;;;;;;;4.40;4.00;;;;;;;-142.25;100.00;58004.16;5035015;28;20049;-66
2023/01/10 01:13:42;;;;;;;4.27;3.87;;;;;;;-142.25;100.00;58004.16;5037260;28;20563;-67
2023/01/10 01:16:07;;;;;;;3.70;3.40;;;;;;;-142.25;100.00;58004.16;5036828;28;20048;-67
2023/01/10 01:18:33;;;;;;;6.43;4.43;;;;;;;-142.25;100.00;58004.16;5035727;28;20056;-66
2023/01/10 01:21:02;;;;;;;4.53;3.70;;;;;;;-142.25;100.00;58004.16;5034575;28;20068;-66
2023/01/10 01:23:29;;;;;;;5.47;4.07;;;;;;;-142.25;100.00;58004.16;5037784;28;20048;-66
2023/01/10 01:25:56;;;;;;;3.10;2.70;;;;;;;-142.25;100.00;58004.16;5036013;28;20045;-66
2023/01/10 01:28:22;;;;;;;3.97;3.20;;;;;;;-142.25;100.00;58004.16;5037475;28;20071;-66
2023/01/10 01:30:49;;;;;;;3.90;3.20;;;;;;;-142.25;100.00;58004.16;5035295;28;20049;-67
2023/01/10 01:33:15;;;;;;;4.50;3.40;;;;;;;-142.25;100.00;58004.16;5042409;28;20430;-67
2023/01/10 01:35:42;;;;;;;3.90;2.87;;;;;;;-142.25;100.00;58004.16;5035416;28;20488;-66
2023/01/10 01:38:07;;;;;;;2.63;2.43;;;;;;;-142.25;100.00;58004.16;5042017;28;20037;-67
2023/01/10 01:40:33;;;;;;;2.33;2.03;;;;;;;-142.25;100.00;58004.16;5035257;28;20052;-67
2023/01/10 01:43:00;;;;;;;6.80;2.57;;;;;;;-142.25;100.00;58004.16;5035385;28;20116;-67
2023/01/10 01:45:25;;;;;;;3.63;2.37;;;;;;;-142.25;100.00;58004.16;5032613;28;20053;-67
2023/01/10 01:48:15;;;;;;;4.70;2.80;;;;;;;-142.25;100.00;58004.16;5034769;28;20053;-68
2023/01/10 01:50:53;;;;;;;7.10;3.93;;;;;;;-142.25;100.00;58004.16;5034087;28;20060;-68
2023/01/10 01:53:30;;;;;;;2.93;2.67;;;;;;;-142.25;100.00;58004.16;5030396;28;21028;-67
2023/01/10 01:56:00;;;;;;;4.00;2.10;;;;;;;-142.25;100.00;58004.16;5031094;28;20061;-67
2023/01/10 01:58:38;;;;;;;3.30;3.00;;;;;;;-142.25;100.00;58004.16;5035701;28;20179;-66
2023/01/10 02:01:04;;;;;;;2.77;2.43;;;;;;;-142.25;100.00;58004.16;5035504;28;20048;-66
2023/01/10 02:03:30;;;;;;;1.97;1.87;;;;;;;-142.25;100.00;58004.16;5034949;28;20554;-70
2023/01/10 02:05:56;;;;;;;2.97;1.93;;;;;;;-142.25;100.00;58004.16;5034913;28;20048;-66
2023/01/10 02:08:22;;;;;;;2.90;2.70;;;;;;;-142.25;100.00;58004.16;5041861;28;20037;-65
2023/01/10 02:11:04;;;;;;;3.37;2.13;;;;;;;-142.25;100.00;58004.16;5035661;28;20052;-68
2023/01/10 02:13:34;;;;;;;2.50;2.30;;;;;;;-142.25;100.00;58004.16;5034635;28;20084;-68
2023/01/10 02:16:00;;;;;;;3.67;2.53;;;;;;;-142.25;100.00;58004.16;5033266;28;20061;-67
2023/01/10 02:18:25;;;;;;;2.17;2.07;;;;;;;-142.25;100.00;58004.16;5033013;28;20436;-67
2023/01/10 02:21:15;;;;;;;3.43;2.20;;;;;;;-142.25;100.00;58004.16;5039588;28;20407;-68
2023/01/10 02:24:04;;;;;;;3.30;2.10;;;;;;;-142.25;100.00;58004.16;5033931;28;20045;-66
2023/01/10 02:27:06;;;;;;;2.40;2.20;;;;;;;-142.25;100.00;58004.16;5032260;28;20721;-68
2023/01/10 02:30:12;;;;;;;2.37;2.13;;;;;;;-142.25;100.00;58004.16;4980342;28;20049;-68
2023/01/10 02:32:47;;;;;;;1.63;1.52;;;;;;;-142.25;100.00;58004.16;4980846;28;20042;-67
2023/01/10 02:35:50;;;;;;;2.67;1.40;;;;;;;-142.25;100.00;58004.16;4981353;28;20041;-68
2023/01/10 02:38:22;;;;;;;2.07;1.87;;;;;;;-142.25;100.00;58004.16;4942053;28;20268;-68
2023/01/10 02:40:59;;;;;;;2.33;2.13;;;;;;;-142.25;100.00;58004.16;4981715;28;20049;-65
2023/01/10 02:43:38;;;;;;;1.80;1.70;;;;;;;-142.25;100.00;58004.16;4979244;28;20525;-68
2023/01/10 02:46:16;;;;;;;2.60;1.80;;;;;;;-142.25;100.00;58004.16;4981606;28;20496;-66
2023/01/10 02:48:41;;;;;;;2.37;2.17;;;;;;;-142.25;100.00;58004.16;4980045;28;20061;-66
2023/01/10 02:51:17;;;;;;;1.93;1.70;;;;;;;-142.25;100.00;58004.16;4945934;28;20497;-66
2023/01/10 02:54:26;;;;;;;1.80;1.67;;;;;;;-142.25;100.00;58004.16;4979605;28;20052;-66
2023/01/10 02:57:26;;;;;;;1.80;1.70;;;;;;;-142.25;100.00;58004.16;4979860;28;20065;-63
2023/01/10 03:00:07;;;;;;;1.93;1.67;;;;;;;-142.25;100.00;58004.16;4980025;28;20054;-68
2023/01/10 03:02:48;;;;;;;2.10;1.90;;;;;;;-142.25;100.00;58004.16;4984616;28;20049;-66
2023/01/10 03:05:48;;;;;;;1.87;1.70;;;;;;;-142.25;100.00;58004.16;5033838;28;20037;-65
2023/01/10 03:08:38;;;;;;;2.70;1.73;;;;;;;-142.25;100.00;58004.16;5035235;28;20034;-66
2023/01/10 03:11:06;;;;;;;2.13;1.90;;;;;;;-142.25;100.00;58004.16;5036503;28;20056;-66
2023/01/10 03:13:57;;;;;;;2.73;1.87;;;;;;;-142.25;100.00;58004.16;5033579;28;20056;-66
2023/01/10 03:16:28;;;;;;;2.97;1.97;;;;;;;-142.25;100.00;58004.16;5027591;28;20103;-66
2023/01/10 03:19:02;;;;;;;2.23;1.80;;;;;;;-142.25;100.00;58004.16;5030200;28;20125;-67
2023/01/10 03:21:31;;;;;;;3.00;1.60;;;;;;;-142.25;100.00;58004.16;5032003;28;20052;-67
2023/01/10 03:24:08;;;;;;;1.67;1.47;;;;;;;-142.25;100.00;58004.16;5025952;28;20458;-66
2023/01/10 03:26:57;;;;;;;1.60;1.30;;;;;;;-142.25;100.00;58004.16;5033494;28;20082;-66
2023/01/10 03:29:40;;;;;;;1.50;1.37;;;;;;;-142.25;100.00;58004.16;5034269;28;20047;-67
2023/01/10 03:32:10;;;;;;;2.43;1.40;;;;;;;-142.25;100.00;58004.16;5035055;28;20072;-67
2023/01/10 03:34:37;;;;;;;7.20;1.87;;;;;;;-142.25;100.00;58004.16;5034546;28;20068;-66
2023/01/10 03:37:06;;;;;;;1.50;1.40;;;;;;;-142.25;100.00;58004.16;5032625;28;20562;-68
2023/01/10 03:39:36;;;;;;;1.40;1.30;;;;;;;-142.25;100.00;58004.16;5033352;28;20563;-66
2023/01/10 03:42:15;;;;;;;1.50;1.40;;;;;;;-142.25;100.00;58004.16;5038400;28;20044;-66
2023/01/10 03:45:07;;;;;;;2.53;1.77;;;;;;;-142.25;100.00;58004.16;5037738;28;20110;-66
2023/01/10 03:47:44;;;;;;;1.90;1.70;;;;;;;-142.25;100.00;58004.16;5037403;28;20052;-67
2023/01/10 03:50:22;;;;;;;1.63;1.53;;;;;;;-142.25;100.00;58004.16;5038929;28;20048;-66
2023/01/10 03:52:48;;;;;;;5.47;1.70;;;;;;;-142.25;100.00;58004.16;5037645;28;20065;-66
2023/01/10 03:55:19;;;;;;;1.40;1.30;;;;;;;-142.25;100.00;58004.16;5039194;28;21067;-67
2023/01/10 03:57:45;;;;;;;2.13;1.70;;;;;;;-142.25;100.00;58004.16;5038226;28;20102;-67
2023/01/10 04:00:12;;;;;;;2.57;1.70;;;;;;;-142.25;100.00;58004.16;5039862;28;20247;-67
2023/01/10 04:02:38;;;;;;;1.97;1.73;;;;;;;-142.25;100.00;58004.16;5039650;28;20111;-66
2023/01/10 04:05:04;;;;;;;1.60;1.50;;;;;;;-142.25;100.00;58004.16;5037305;28;20049;-66
2023/01/10 04:07:30;;;;;;;1.87;1.77;;;;;;;-142.25;100.00;58004.16;5036693;28;20041;-67
2023/01/10 04:09:56;;;;;;;2.13;1.87;;;;;;;-142.25;100.00;58004.16;5032523;28;20723;-67
2023/01/10 04:12:21;;;;;;;1.90;1.70;;;;;;;-142.25;100.00;58004.16;5018149;28;20041;-67
2023/01/10 04:14:47;;;;;;;1.83;1.73;;;;;;;-142.25;100.00;58004.16;5036854;28;20041;-67
2023/01/10 04:17:14;;;;;;;1.57;1.47;;;;;;;-142.25;100.00;58004.16;5036469;28;20060;-67
2023/01/10 04:19:40;;;;;;;3.43;3.13;;;;;;;-142.25;100.00;58004.16;5036741;28;20041;-68
2023/01/10 04:22:07;;;;;;;1.97;1.73;;;;;;;-142.25;100.00;58004.16;5036534;28;20136;-67
2023/01/10 04:24:33;;;;;;;3.57;2.17;;;;;;;-142.25;100.00;58004.16;5038344;28;20056;-65
2023/01/10 04:27:00;;;;;;;2.63;1.77;;;;;;;-142.25;100.00;58004.16;5037972;28;20045;-64
2023/01/10 04:29:26;;;;;;;2.77;2.00;;;;;;;-142.25;100.00;58004.16;5037378;28;20152;-66
2023/01/10 04:31:52;;;;;;;2.70;2.40;;;;;;;-142.25;100.00;58004.16;5038324;28;20037;-66
2023/01/10 04:34:21;;;;;;;1.93;1.80;;;;;;;-142.25;100.00;58004.16;5038892;28;20106;-67
2023/01/10 04:36:47;;;;;;;2.90;1.90;;;;;;;-142.25;100.00;58004.16;5037834;28;20037;-66
2023/01/10 04:39:14;;;;;;;2.27;2.07;;;;;;;-142.25;100.00;58004.16;5038150;28;20226;-68
2023/01/10 04:41:39;;;;;;;3.80;1.90;;;;;;;-142.25;100.00;58004.16;5037082;28;20029;-67
2023/01/10 04:44:05;;;;;;;2.60;2.40;;;;;;;-142.25;100.00;58004.16;5037928;28;20048;-67
2023/01/10 04:46:31;;;;;;;3.20;2.50;;;;;;;-142.25;100.00;58004.16;5036570;28;20518;-65
2023/01/10 04:48:57;;;;;;;2.60;2.40;;;;;;;-142.25;100.00;58004.16;5037840;28;20045;-66
2023/01/10 04:51:24;;;;;;;2.80;2.57;;;;;;;-142.25;100.00;58004.16;5037101;28;20098;-66
2023/01/10 04:53:50;;;;;;;1.70;1.60;;;;;;;-142.25;100.00;58004.16;5038243;28;20036;-66
2023/01/10 04:56:18;;;;;;;3.10;2.40;;;;;;;-142.25;100.00;58004.16;5039184;28;20471;-67
2023/01/10 04:58:45;;;;;;;2.50;2.30;;;;;;;-142.25;100.00;58004.16;5036028;28;20447;-65
2023/01/10 05:01:17;;;;;;;1.87;1.77;;;;;;;-142.25;100.00;58004.16;5038140;28;20792;-66
2023/01/10 05:03:43;;;;;;;4.07;2.50;;;;;;;-142.25;100.00;58004.16;5035696;28;20114;-66
2023/01/10 05:06:09;;;;;;;2.03;1.83;;;;;;;-142.25;100.00;58004.16;5036157;28;20040;-68
2023/01/10 05:08:34;;;;;;;2.67;2.30;;;;;;;-142.25;100.00;58004.16;5037144;28;20098;-66
2023/01/10 05:11:00;;;;;;;3.23;2.07;;;;;;;-142.25;100.00;58004.16;5036354;28;20449;-67
2023/01/10 05:13:26;;;;;;;2.40;2.20;;;;;;;-142.25;100.00;58004.16;5037346;28;20098;-66
2023/01/10 05:15:56;;;;;;;2.13;1.90;;;;;;;-142.25;100.00;58004.16;5037943;28;20047;-67
2023/01/10 05:18:24;;;;;;;2.00;1.90;;;;;;;-142.25;100.00;58004.16;5037538;28;20056;-66
2023/01/10 05:20:50;;;;;;;2.00;1.90;;;;;;;-142.25;100.00;58004.16;5035973;28;20043;-67
2023/01/10 05:23:16;;;;;;;2.00;1.90;;;;;;;-142.25;100.00;58004.16;5035581;28;20103;-67
2023/01/10 05:25:42;;;;;;;2.07;1.97;;;;;;;-142.25;100.00;58004.16;5035544;28;20037;-68
2023/01/10 05:28:07;;;;;;;2.20;1.90;;;;;;;-142.25;100.00;58004.16;5036578;28;20048;-66
2023/01/10 05:30:33;;;;;;;2.53;1.93;;;;;;;-142.25;100.00;58004.16;5036379;28;20479;-68
2023/01/10 05:32:59;;;;;;;1.63;1.53;;;;;;;-142.25;100.00;58004.16;5036003;28;20044;-67
2023/01/10 05:35:25;;;;;;;2.10;1.97;;;;;;;-142.25;100.00;58004.16;5034858;28;20052;-67
2023/01/10 05:37:51;;;;;;;2.87;2.00;;;;;;;-142.25;100.00;58004.16;5040548;28;20044;-65
2023/01/10 05:40:17;;;;;;;1.83;1.70;;;;;;;-142.25;100.00;58004.16;5035304;28;20044;-66
2023/01/10 05:42:43;;;;;;;2.20;1.67;;;;;;;-142.25;100.00;58004.16;5034197;28;20620;-68
2023/01/10 05:45:09;;;;;;;3.03;1.50;;;;;;;-142.25;100.00;58004.16;5034852;28;20410;-66
2023/01/10 05:47:35;;;;;;;1.87;1.53;;;;;;;-142.25;100.00;58004.16;5036894;28;20131;-68
2023/01/10 05:50:00;;;;;;;2.07;1.80;;;;;;;-142.25;100.00;58004.16;5035027;28;20135;-67
2023/01/10 05:52:26;;;;;;;1.30;1.30;;;;;;;-142.25;100.00;58004.16;5034534;28;20478;-68
2023/01/10 05:54:52;;;;;;;1.63;1.53;;;;;;;-142.25;100.00;58004.16;5035447;28;20088;-68
2023/01/10 05:57:21;;;;;;;3.40;2.70;;;;;;;-142.25;100.00;58004.16;5035749;28;20124;-68
2023/01/10 05:59:46;;;;;;;1.70;1.60;;;;;;;-142.25;100.00;58004.16;5035343;28;20054;-68
2023/01/10 06:02:12;;;;;;;2.77;1.97;;;;;;;-142.25;100.00;58004.16;5034631;28;20072;-67
2023/01/10 06:04:37;;;;;;;2.53;2.10;;;;;;;-142.25;100.00;58004.16;5035747;28;20037;-67
2023/01/10 06:07:03;;;;;;;2.97;2.40;;;;;;;-142.25;100.00;58004.16;5035322;28;20063;-67
2023/01/10 06:09:29;;;;;;;2.13;1.53;;;;;;;-142.25;100.00;58004.16;5034406;28;20098;-63
2023/01/10 06:11:55;;;;;;;1.93;1.77;;;;;;;-142.25;100.00;58004.16;5034907;28;20037;-68
2023/01/10 06:14:21;;;;;;;2.97;2.13;;;;;;;-142.25;100.00;58004.16;5034688;28;20050;-71
2023/01/10 06:16:48;;;;;;;3.03;2.30;;;;;;;-142.25;100.00;58004.16;5033502;28;20060;-68
2023/01/10 06:19:17;;;;;;;8.10;2.53;;;;;;;-142.25;100.00;58004.16;5028188;28;20033;-70
2023/01/10 06:21:42;;;;;;;2.63;2.43;;;;;;;-142.25;100.00;58004.16;5036923;28;20068;-64
2023/01/10 06:24:08;;;;;;;2.23;2.13;;;;;;;-142.25;100.00;58004.16;5034631;28;20917;-68
2023/01/10 06:26:34;;;;;;;4.10;2.10;;;;;;;-142.25;100.00;58004.16;5035373;28;20109;-66
2023/01/10 06:28:59;;;;;;;2.73;2.53;;;;;;;-142.25;100.00;58004.16;5035119;28;20045;-67
2023/01/10 06:31:25;;;;;;;5.43;1.80;;;;;;;-142.25;100.00;58004.16;5034169;28;20091;-69
2023/01/10 06:33:51;;;;;;;3.50;1.93;;;;;;;-142.25;100.00;58004.16;5034942;28;20037;-70
2023/01/10 06:36:17;;;;;;;3.90;3.43;;;;;;;-142.25;100.00;58004.16;5022772;28;20042;-70
2023/01/10 06:38:43;;;;;;;2.20;1.90;;;;;;;-142.25;100.00;58004.16;5032564;28;20044;-62
2023/01/10 06:41:12;;;;;;;1.87;1.77;;;;;;;-142.25;100.00;58004.16;5036036;28;20521;-72
2023/01/10 06:43:44;;;;;;;2.57;1.87;;;;;;;-142.25;100.00;58004.16;5033050;28;20641;-71
2023/01/10 06:46:15;;;;;;;3.17;1.97;;;;;;;-142.25;100.00;58004.16;5034168;28;20592;-71
2023/01/10 06:48:43;;;;;;;2.10;1.87;;;;;;;-142.25;100.00;58004.16;5033467;28;20041;-72
2023/01/10 06:51:09;;;;;;;2.10;2.00;;;;;;;-142.25;100.00;58004.16;5033887;28;20044;-71
2023/01/10 06:53:35;;;;;;;2.07;1.90;;;;;;;-142.25;100.00;58004.16;5035276;28;20037;-71
2023/01/10 06:56:01;;;;;;;2.77;2.50;;;;;;;-142.25;100.00;58004.16;5033044;28;20044;-72
2023/01/10 06:58:28;;;;;;;2.77;2.53;;;;;;;-142.25;100.00;58004.16;5036074;28;20457;-72
2023/01/10 07:00:54;;;;;;;3.17;2.07;;;;;;;-142.25;100.00;58004.16;5033715;28;20033;-72
2023/01/10 07:03:19;;;;;;;2.87;2.43;;;;;;;-142.25;100.00;58004.16;5031254;28;20199;-73
2023/01/10 07:05:45;;;;;;;3.23;2.10;;;;;;;-142.25;100.00;58004.16;5027295;28;20045;-72
2023/01/10 07:08:11;;;;;;;2.07;1.90;;;;;;;-142.25;100.00;58004.16;5031200;28;20053;-71
2023/01/10 07:10:40;;;;;;;2.07;1.87;;;;;;;-142.25;100.00;58004.16;5032479;28;20852;-71
2023/01/10 07:13:06;;;;;;;2.10;1.80;;;;;;;-142.25;100.00;58004.16;5034785;28;20042;-71
2023/01/10 07:15:32;;;;;;;2.07;1.67;;;;;;;-142.25;100.00;58004.16;5033241;28;20096;-71
2023/01/10 07:17:58;;;;;;;4.00;2.70;;;;;;;-142.25;100.00;58004.16;5034238;28;20160;-71
2023/01/10 07:20:24;;;;;;;3.27;2.23;;;;;;;-142.25;100.00;58004.16;5037423;28;20559;-73
2023/01/10 07:22:58;;;;;;;3.73;2.23;;;;;;;-142.25;100.00;58004.16;5038754;28;20041;-70
2023/01/10 07:25:26;;;;;;;4.37;2.40;;;;;;;-142.25;100.00;58004.16;5035152;28;20037;-69
2023/01/10 07:27:54;;;;;;;2.47;2.27;;;;;;;-142.25;100.00;58004.16;5038148;28;20029;-71
2023/01/10 07:30:21;;;;;;;2.37;1.97;;;;;;;-142.25;100.00;58004.16;5037480;28;20113;-71
2023/01/10 07:32:57;;;;;;;2.23;1.87;;;;;;;-142.25;100.00;58004.16;5037131;28;20041;-72
2023/01/10 07:35:24;;;;;;;2.40;2.20;;;;;;;-142.25;100.00;58004.16;5041450;28;20053;-72
2023/01/10 07:37:49;;;;;;;2.60;2.40;;;;;;;-142.25;100.00;58004.16;5035127;28;20475;-74
2023/01/10 07:40:15;;;;;;;2.80;2.47;;;;;;;-142.25;100.00;58004.16;5036893;28;20049;-72
2023/01/10 07:42:41;;;;;;;3.93;2.20;;;;;;;-142.25;100.00;58004.16;5037108;28;20048;-70
2023/01/10 07:45:07;;;;;;;2.43;2.13;;;;;;;-142.25;100.00;58004.16;5045225;28;20102;-72
2023/01/10 07:47:33;;;;;;;2.27;2.07;;;;;;;-142.25;100.00;58004.16;5039916;28;20037;-71
2023/01/10 07:49:59;;;;;;;2.40;2.10;;;;;;;-142.25;100.00;58004.16;5037201;28;20037;-71
2023/01/10 07:52:25;;;;;;;2.87;2.30;;;;;;;-142.25;100.00;58004.16;5038383;28;20557;-65
2023/01/10 07:54:50;;;;;;;2.13;1.93;;;;;;;-142.25;100.00;58004.16;5036255;28;20127;-72
2023/01/10 07:57:16;;;;;;;2.40;2.20;;;;;;;-142.25;100.00;58004.16;5037583;28;20202;-68
2023/01/10 07:59:42;;;;;;;4.13;2.27;;;;;;;-142.25;100.00;58004.16;5044793;28;20496;-69
2023/01/10 08:02:10;;;;;;;4.00;3.60;;;;;;;-142.25;100.00;58004.16;5038319;28;20045;-71
2023/01/10 08:04:38;;;;;;;2.23;2.07;;;;;;;-142.25;100.00;58004.16;5035823;28;20049;-71
2023/01/10 08:07:04;;;;;;;3.37;2.67;;;;;;;-142.25;100.00;58004.16;5039300;28;20036;-72
2023/01/10 08:09:30;;;;;;;3.17;2.20;;;;;;;-142.25;100.00;58004.16;5036895;28;20057;-72
2023/01/10 08:11:55;;;;;;;3.40;2.13;;;;;;;-142.25;100.00;58004.16;5039604;28;20055;-70
2023/01/10 08:14:21;;;;;;;3.13;2.80;;;;;;;-142.25;100.00;58004.16;5037112;28;20049;-71
2023/01/10 08:16:47;;;;;;;3.50;2.43;;;;;;;-142.25;100.00;58004.16;5037483;28;20683;-71
2023/01/10 08:19:15;;;;;;;4.20;2.60;;;;;;;-142.25;100.00;58004.16;5038380;28;20041;-72
2023/01/10 08:21:41;;;;;;;2.47;2.27;;;;;;;-142.25;100.00;58004.16;5038795;28;20052;-71
2023/01/10 08:24:07;;;;;;;3.13;2.50;;;;;;;-142.25;100.00;58004.16;5037290;28;20044;-69
2023/01/10 08:26:34;;;;;;;3.90;3.13;;;;;;;-142.25;100.00;58004.16;5035657;28;20061;-72
2023/01/10 08:29:00;;;;;;;4.37;2.33;;;;;;;-142.25;100.00;58004.16;5036872;28;20645;-70
2023/01/10 08:31:29;;;;;;;3.03;2.67;;;;;;;-142.25;100.00;58004.16;5040178;28;20052;-69
2023/01/10 08:33:55;;;;;;;3.37;2.20;;;;;;;-142.25;100.00;58004.16;5037119;28;20033;-68
2023/01/10 08:36:23;;;;;;;3.80;3.23;;;;;;;-142.25;100.00;58004.16;5037603;28;20041;-69
2023/01/10 08:38:49;;;;;;;3.47;2.13;;;;;;;-142.25;100.00;58004.16;5036655;28;20037;-69
2023/01/10 08:41:15;;;;;;;2.17;2.00;;;;;;;-142.25;100.00;58004.16;5036521;28;20056;-70
2023/01/10 08:43:41;;;;;;;2.87;2.57;;;;;;;-142.25;100.00;58004.16;5033963;28;20132;-71
2023/01/10 08:46:07;;;;;;;3.87;1.83;;;;;;;-142.25;100.00;58004.16;5035996;28;20048;-68
2023/01/10 08:48:32;;;;;;;2.70;2.50;;;;;;;-142.25;100.00;58004.16;5031168;28;20791;-69
2023/01/10 08:51:04;;;;;;;4.40;2.53;;;;;;;-142.25;100.00;58004.16;5034284;28;20255;-69
2023/01/10 08:53:30;;;;;;;2.80;1.93;;;;;;;-142.25;100.00;58004.16;5036164;28;20037;-68
2023/01/10 08:55:56;;;;;;;4.20;2.50;;;;;;;-142.25;100.00;58004.16;5035688;28;20029;-67
2023/01/10 08:58:21;;;;;;;6.43;2.80;;;;;;;-142.25;100.00;58004.16;5036880;28;20561;-68
2023/01/10 09:00:48;;;;;;;2.83;2.33;;;;;;;-142.25;100.00;58004.16;5034915;28;20045;-68
2023/01/10 09:03:14;;;;;;;3.33;2.67;;;;;;;-142.25;100.00;58004.16;5035160;28;20050;-66
2023/01/10 09:05:39;;;;;;;2.30;1.73;;;;;;;-142.25;100.00;58004.16;5037332;28;20053;-66
2023/01/10 09:08:05;;;;;;;2.77;1.83;;;;;;;-142.25;100.00;58004.16;5035101;28;20653;-72
2023/01/10 09:10:31;;;;;;;2.20;2.00;;;;;;;-142.25;100.00;58004.16;5025231;28;20601;-73
2023/01/10 09:13:00;;;;;;;2.20;1.83;;;;;;;-142.25;100.00;58004.16;5034087;28;20079;-73
2023/01/10 09:15:32;;;;;;;1.77;1.67;;;;;;;-142.25;100.00;58004.16;5031494;28;20063;-74
2023/01/10 09:18:00;;;;;;;3.53;1.80;;;;;;;-142.25;100.00;58004.16;5033247;28;20454;-72
2023/01/10 09:20:27;;;;;;;2.53;2.33;;;;;;;-142.25;100.00;58004.16;5035701;28;20154;-73
2023/01/10 09:22:54;;;;;;;2.73;2.03;;;;;;;-142.25;100.00;58004.16;5035078;28;20488;-73
2023/01/10 09:25:20;;;;;;;2.30;2.10;;;;;;;-142.25;100.00;58004.16;5036117;28;20046;-73
2023/01/10 09:27:45;;;;;;;3.10;2.00;;;;;;;-142.25;100.00;58004.16;5033044;28;20048;-73
2023/01/10 09:30:12;;;;;;;2.53;1.87;;;;;;;-142.25;100.00;58004.16;5036340;28;20446;-73
2023/01/10 09:32:37;;;;;;;2.37;1.97;;;;;;;-142.25;100.00;58004.16;5038546;28;20041;-72
2023/01/10 09:35:03;;;;;;;2.07;1.87;;;;;;;-142.25;100.00;58004.16;5035359;28;20522;-73
2023/01/10 09:37:29;;;;;;;2.03;1.80;;;;;;;-142.25;100.00;58004.16;5029654;28;20048;-73
2023/01/10 09:39:55;;;;;;;2.37;2.17;;;;;;;-142.25;100.00;58004.16;5028617;28;20049;-72
2023/01/10 09:42:30;;;;;;;2.00;1.80;;;;;;;-142.25;100.00;58004.16;5034437;28;20163;-71
2023/01/10 09:44:55;;;;;;;;;;;;;;;-142.25;100.00;58004.16;5035421;28;20074;-72
2023/01/10 09:47:42;;;;;;;3.47;1.93;;;;;;;-142.25;100.00;58004.16;5036447;28;19947;-73
2023/01/10 09:50:32;;;;;;;4.03;1.77;;;;;;;-142.25;100.00;58004.16;5036987;28;20377;-72
2023/01/10 09:53:05;;;;;;;1.97;1.80;;;;;;;-142.25;100.00;58004.16;5036359;28;20041;-73
2023/01/10 09:55:35;;;;;;;1.73;1.63;;;;;;;-142.25;100.00;58004.16;5036583;28;20194;-73
2023/01/10 09:58:06;;;;;;;2.63;1.87;;;;;;;-142.25;100.00;58004.16;5032755;28;20053;-72
2023/01/10 10:00:48;;;;;;;2.17;1.60;;;;;;;-142.25;100.00;58004.16;5036302;28;20488;-72
2023/01/10 10:03:23;;;;;;;2.37;2.10;;;;;;;-142.25;100.00;58004.16;5035998;28;20044;-72
2023/01/10 10:05:49;;;;;;;3.08;1.63;;;;;;;-142.25;100.00;58004.16;5034243;28;20071;-69
2023/01/10 10:08:17;;;;;;;4.73;2.07;;;;;;;-142.25;100.00;58004.16;5036822;28;20568;-70
2023/01/10 10:11:09;;;;;;;3.33;2.17;;;;;;;-142.25;100.00;58004.16;5038082;28;20353;-70
2023/01/10 10:14:14;;;;;;;3.43;2.10;;;;;;;-142.25;100.00;58004.16;5034703;28;20947;-69
2023/01/10 10:16:58;;;;;;;2.23;2.03;;;;;;;-142.25;100.00;58004.16;5025087;28;20053;-66
2023/01/10 10:19:27;;;;;;;3.03;1.70;;;;;;;-142.25;100.00;58004.16;5032864;28;20095;-70
2023/01/10 10:22:15;;;;;;;3.77;1.73;;;;;;;-142.25;100.00;58004.16;5034446;28;20045;-70
2023/01/10 10:24:48;;;;;;;2.87;2.20;;;;;;;-142.25;100.00;58004.16;5033452;28;20104;-68
2023/01/10 10:27:28;;;;;;;2.23;1.80;;;;;;;-142.25;100.00;58004.16;5038165;28;20090;-68
2023/01/10 10:30:10;;;;;;;2.57;1.97;;;;;;;-142.25;100.00;58004.16;5034938;28;20167;-68
2023/01/10 10:33:13;;;;;;;2.03;1.90;;;;;;;-142.25;100.00;58004.16;5033290;28;20450;-69
2023/01/10 10:35:43;;;;;;;1.77;1.67;;;;;;;-142.25;100.00;58004.16;5033586;28;20076;-67
2023/01/10 10:38:32;;;;;;;2.53;2.33;;;;;;;-142.25;100.00;58004.16;5031422;28;20598;-71
2023/01/10 10:41:00;;;;;;;2.83;2.10;;;;;;;-142.25;100.00;58004.16;5032340;28;20390;-68
2023/01/10 10:43:33;;;;;;;1.97;1.40;;;;;;;-142.25;100.00;58004.16;5035575;28;20275;-69
2023/01/10 10:46:12;;;;;;;2.07;1.93;;;;;;;-142.25;100.00;58004.16;5034197;28;20091;-69
2023/01/10 10:48:46;;;;;;;2.20;1.90;;;;;;;-142.25;100.00;58004.16;5034087;28;20060;-70
2023/01/10 10:51:46;;;;;;;5.10;2.50;;;;;;;-142.25;100.00;58004.16;5032770;28;20088;-69
2023/01/10 10:54:13;;;;;;;2.27;2.07;;;;;;;-142.25;100.00;58004.16;5024353;28;20309;-68
2023/01/10 10:56:39;;;;;;;2.40;2.17;;;;;;;-142.25;100.00;58004.16;5032353;28;20057;-69
2023/01/10 10:59:05;;;;;;;1.70;1.60;;;;;;;-142.25;100.00;58004.16;5033391;28;20049;-68
2023/01/10 11:01:31;;;;;;;1.93;1.67;;;;;;;-142.25;100.00;58004.16;5033942;28;20407;-69
2023/01/10 11:04:02;;;;;;;2.67;2.17;;;;;;;-142.25;100.00;58004.16;5035879;28;20112;-70
2023/01/10 11:06:30;;;;;;;5.27;1.70;;;;;;;-142.25;100.00;58004.16;5034520;28;20065;-70
2023/01/10 11:09:00;;;;;;;2.10;2.00;;;;;;;-142.25;100.00;58004.16;5035802;28;20595;-71
2023/01/10 11:11:33;;;;;;;1.57;1.47;;;;;;;-142.25;100.00;58004.16;5036403;28;20124;-70
2023/01/10 11:14:08;;;;;;;1.80;1.70;;;;;;;-142.25;100.00;58004.16;5033583;28;20046;-71
2023/01/10 11:16:40;;;;;;;4.07;1.90;;;;;;;-142.25;100.00;58004.16;5030865;28;20148;-71
2023/01/10 11:19:19;;;;;;;3.03;1.67;;;;;;;-142.25;100.00;58004.16;5035088;28;20049;-71
2023/01/10 11:21:54;;;;;;;2.50;2.03;;;;;;;-142.25;100.00;58004.16;5033884;28;20045;-71
2023/01/10 11:24:24;;;;;;;2.30;1.70;;;;;;;-142.25;100.00;58004.16;5032069;28;20468;-71
2023/01/10 11:26:50;;;;;;;1.97;1.77;;;;;;;-142.25;100.00;58004.16;5033416;28;20041;-71
2023/01/10 11:29:39;;;;;;;2.97;1.80;;;;;;;-142.25;100.00;58004.16;5033025;28;20117;-70